Terminal Aerodrome Forecast
Issued by NWS

Home | Current Version | Previous Version | Text Only | Print | Product List | Glossary On
Versions: 1 2 3 4 5 6 7 8 9 10 11 12 13 14 15 16 17 18 19 20
901
FTUS41 KBTV 090528
TAFMSS
TAF
KMSS 090528Z 0906/1006 28010G16KT P6SM SCT015 OVC045
     FM091600 29012G19KT P6SM BKN025
     FM092300 29010G16KT P6SM BKN040=

USA.gov is the U.S. government's official web portal to all federal, state and local government web resources and services.